createdAt,value
2022-09-10T00:02:51.742Z,4.43
2022-09-10T00:05:56.048Z,3.53
2022-09-10T00:09:00.011Z,3.10
2022-09-10T00:12:04.679Z,5.00
2022-09-10T00:15:08.450Z,3.43
2022-09-10T00:18:11.429Z,3.50
2022-09-10T00:21:17.686Z,3.77
2022-09-10T00:24:22.491Z,3.50
2022-09-10T00:27:26.960Z,4.40
2022-09-10T00:30:29.900Z,3.93
2022-09-10T00:33:32.908Z,4.23
2022-09-10T00:36:39.649Z,5.23
2022-09-10T00:39:43.077Z,3.97
2022-09-10T00:42:47.353Z,6.47
2022-09-10T00:45:53.515Z,4.27
2022-09-10T00:48:59.166Z,3.43
2022-09-10T00:52:03.333Z,3.70
2022-09-10T00:55:07.639Z,4.17
2022-09-10T00:58:14.657Z,3.23
2022-09-10T01:01:19.163Z,3.67
2022-09-10T01:04:22.473Z,3.00
2022-09-10T01:07:26.843Z,4.30
2022-09-10T01:10:34.746Z,3.50
2022-09-10T01:13:52.916Z,4.73
2022-09-10T01:17:04.022Z,3.90
2022-09-10T01:20:41.885Z,4.93
2022-09-10T01:24:13.394Z,4.27
2022-09-10T01:27:41.201Z,4.43
2022-09-10T01:30:48.316Z,6.60
2022-09-10T01:33:58.850Z,3.60
2022-09-10T01:37:09.577Z,3.00
2022-09-10T01:40:13.694Z,2.53
2022-09-10T01:43:18.251Z,3.40
2022-09-10T01:46:34.827Z,2.50
2022-09-10T01:49:43.999Z,2.87
2022-09-10T01:53:00.103Z,3.10
2022-09-10T01:56:12.683Z,2.20
2022-09-10T01:59:29.081Z,2.60
2022-09-10T02:02:37.035Z,2.93
2022-09-10T02:05:42.660Z,2.43
2022-09-10T02:08:49.002Z,3.50
2022-09-10T02:11:56.125Z,2.80
2022-09-10T02:15:00.459Z,2.43
2022-09-10T02:18:03.433Z,3.57
2022-09-10T02:21:06.868Z,4.10
2022-09-10T02:24:12.371Z,2.53
2022-09-10T02:27:15.411Z,1.83
2022-09-10T02:30:20.208Z,1.93
2022-09-10T02:33:23.259Z,1.70
2022-09-10T02:36:26.845Z,1.60
2022-09-10T02:39:29.998Z,1.93
2022-09-10T02:42:34.034Z,3.90
2022-09-10T02:45:41.028Z,2.37
2022-09-10T02:48:43.992Z,2.10
2022-09-10T02:51:46.948Z,2.27
2022-09-10T02:54:50.249Z,1.40
2022-09-10T02:57:53.809Z,1.70
2022-09-10T03:01:07.352Z,1.73
2022-09-10T03:04:10.634Z,2.53
2022-09-10T03:07:17.010Z,2.47
2022-09-10T03:10:20.426Z,2.43
2022-09-10T03:13:23.396Z,3.10
2022-09-10T03:16:27.744Z,3.13
2022-09-10T03:19:31.285Z,2.70
2022-09-10T03:22:34.242Z,2.60
2022-09-10T03:25:37.200Z,3.50
2022-09-10T03:28:40.276Z,3.47
2022-09-10T03:31:46.363Z,3.70
2022-09-10T03:34:50.110Z,2.67
2022-09-10T03:37:53.060Z,4.00
2022-09-10T03:40:56.662Z,3.13
2022-09-10T03:43:59.626Z,4.10
2022-09-10T03:47:04.928Z,5.17
2022-09-10T03:50:08.343Z,3.90
2022-09-10T03:53:11.642Z,2.53
2022-09-10T03:56:15.349Z,4.50
2022-09-10T03:59:18.531Z,3.23
2022-09-10T04:02:22.878Z,4.43
2022-09-10T04:05:27.528Z,3.00
2022-09-10T04:08:30.669Z,3.47
2022-09-10T04:11:33.700Z,4.33
2022-09-10T04:14:37.217Z,3.87
2022-09-10T04:17:41.691Z,4.47
2022-09-10T04:20:47.547Z,2.67
2022-09-10T04:23:54.942Z,3.93
2022-09-10T04:26:59.035Z,4.73
2022-09-10T04:30:02.008Z,3.73
2022-09-10T04:33:06.393Z,3.50
2022-09-10T04:36:09.494Z,3.13
2022-09-10T04:39:14.359Z,3.03
2022-09-10T04:42:19.053Z,3.53
2022-09-10T04:45:22.058Z,2.97
2022-09-10T04:48:26.848Z,2.93
2022-09-10T04:51:29.834Z,4.77
2022-09-10T04:54:33.360Z,3.53
2022-09-10T04:57:36.590Z,4.53
2022-09-10T05:00:40.150Z,3.20
2022-09-10T05:03:44.442Z,3.50
2022-09-10T05:06:50.297Z,4.03
2022-09-10T05:09:53.277Z,3.17
2022-09-10T05:12:56.341Z,3.50
2022-09-10T05:15:59.698Z,3.13
2022-09-10T05:19:04.085Z,4.00
2022-09-10T05:22:07.032Z,3.20
2022-09-10T05:25:10.610Z,3.20
2022-09-10T05:28:13.587Z,4.13
2022-09-10T05:31:17.308Z,4.13
2022-09-10T05:34:21.623Z,3.13
2022-09-10T05:37:24.626Z,3.47
2022-09-10T05:40:29.118Z,4.50
2022-09-10T05:43:32.063Z,3.50
2022-09-10T05:46:35.022Z,3.97
2022-09-10T05:49:39.292Z,3.03
2022-09-10T05:52:42.286Z,4.23
2022-09-10T05:55:45.967Z,4.33
2022-09-10T05:58:49.577Z,3.83
2022-09-10T06:01:52.533Z,3.77
2022-09-10T06:04:56.821Z,6.73
2022-09-10T06:07:59.753Z,5.90
2022-09-10T06:11:05.031Z,4.87
2022-09-10T06:14:08.966Z,4.60
2022-09-10T06:17:12.254Z,5.90
2022-09-10T06:20:16.586Z,4.47
2022-09-10T06:23:19.566Z,6.90
2022-09-10T06:26:22.675Z,5.87
2022-09-10T06:29:25.625Z,5.47
2022-09-10T06:32:28.564Z,4.57
2022-09-10T06:35:33.213Z,5.87
2022-09-10T06:38:36.585Z,6.30
2022-09-10T06:41:39.579Z,4.77
2022-09-10T06:44:42.502Z,4.10
2022-09-10T06:48:32.789Z,3.50
2022-09-10T06:51:12.617Z,4.83
2022-09-10T06:54:15.598Z,5.80
2022-09-10T06:57:18.810Z,4.30
2022-09-10T07:00:22.133Z,4.30
2022-09-10T07:03:25.094Z,4.33
2022-09-10T07:06:34.733Z,6.80
2022-09-10T07:09:37.685Z,5.13
2022-09-10T07:12:40.638Z,4.57
2022-09-10T07:15:47.345Z,7.90
2022-09-10T07:18:50.898Z,5.03
2022-09-10T07:21:55.178Z,5.27
2022-09-10T07:24:58.346Z,4.77
2022-09-10T07:28:01.959Z,4.90
2022-09-10T07:31:13.181Z,5.03
2022-09-10T07:34:16.317Z,5.87
2022-09-10T07:37:20.596Z,4.97
2022-09-10T07:40:23.959Z,4.87
2022-09-10T07:43:27.026Z,6.33
2022-09-10T07:46:29.970Z,5.97
2022-09-10T07:49:32.888Z,5.77
2022-09-10T07:52:37.258Z,7.33
2022-09-10T07:55:40.308Z,6.30
2022-09-10T07:58:43.276Z,6.20
2022-09-10T08:01:47.634Z,5.57
2022-09-10T08:04:50.559Z,7.33
2022-09-10T08:07:55.154Z,6.90
2022-09-10T08:11:11.767Z,7.27
2022-09-10T08:14:15.121Z,6.90
2022-09-10T08:17:18.064Z,7.23
2022-09-10T08:20:21.233Z,7.13
2022-09-10T08:23:25.523Z,6.77
2022-09-10T08:26:29.311Z,6.87
2022-09-10T08:29:32.284Z,7.47
2022-09-10T08:32:35.927Z,7.80
2022-09-10T08:35:38.917Z,6.53
2022-09-10T08:38:44.432Z,8.10
2022-09-10T08:41:53.889Z,8.43
2022-09-10T08:45:04.246Z,7.70
2022-09-10T08:48:16.322Z,9.47
2022-09-10T08:51:27.469Z,8.13
2022-09-10T08:54:37.503Z,8.10
2022-09-10T08:57:45.210Z,8.33
2022-09-10T09:00:53.018Z,8.37
2022-09-10T09:03:58.230Z,10.00
2022-09-10T09:07:05.874Z,8.07
2022-09-10T09:10:21.303Z,9.03
2022-09-10T09:13:46.826Z,8.57
2022-09-10T09:17:17.017Z,8.57
2022-09-10T09:20:31.965Z,7.37
2022-09-10T09:24:02.728Z,8.57
2022-09-10T09:27:16.126Z,8.50
2022-09-10T09:30:23.005Z,8.27
2022-09-10T09:33:27.491Z,8.67
2022-09-10T09:36:38.262Z,10.20
2022-09-10T09:39:49.287Z,8.40
2022-09-10T09:42:57.317Z,8.27
2022-09-10T09:46:00.979Z,7.23
2022-09-10T09:49:04.391Z,10.50
2022-09-10T09:52:18.823Z,9.73
2022-09-10T09:55:31.036Z,10.47
2022-09-10T09:58:37.526Z,9.77
2022-09-10T10:01:43.279Z,8.67
2022-09-10T10:04:56.479Z,11.30
2022-09-10T10:08:00.005Z,7.80
2022-09-10T10:11:03.136Z,8.17
2022-09-10T10:14:21.666Z,6.77
2022-09-10T10:17:45.537Z,6.07
2022-09-10T10:20:49.659Z,8.17
2022-09-10T10:23:52.704Z,8.17
2022-09-10T10:26:55.904Z,8.67
2022-09-10T10:30:02.127Z,9.40
2022-09-10T10:33:05.410Z,9.40
2022-09-10T10:36:18.650Z,7.10
2022-09-10T10:39:26.645Z,10.87
2022-09-10T10:42:35.952Z,9.20
2022-09-10T10:45:50.504Z,8.80
2022-09-10T10:49:05.069Z,10.40
2022-09-10T10:52:19.241Z,10.50
2022-09-10T10:55:25.930Z,10.27
2022-09-10T10:58:54.134Z,10.70
2022-09-10T11:02:03.542Z,11.10
2022-09-10T11:05:20.598Z,10.97
2022-09-10T11:08:30.569Z,11.83
2022-09-10T11:11:40.512Z,10.27
2022-09-10T11:14:49.289Z,11.43
2022-09-10T11:17:59.002Z,9.83
2022-09-10T11:21:06.168Z,8.47
2022-09-10T11:24:17.363Z,10.07
2022-09-10T11:27:25.158Z,9.53
2022-09-10T11:30:28.764Z,10.60
2022-09-10T11:33:39.899Z,10.10
2022-09-10T11:36:48.070Z,8.53
2022-09-10T11:39:54.992Z,10.10
2022-09-10T11:43:03.649Z,8.60
2022-09-10T11:46:10.953Z,7.70
2022-09-10T11:49:20.594Z,8.03
2022-09-10T11:52:25.788Z,8.03
2022-09-10T11:55:41.638Z,9.23
2022-09-10T11:58:54.166Z,8.87
2022-09-10T12:02:50.124Z,8.37
2022-09-10T12:06:02.258Z,8.40
2022-09-10T12:09:14.205Z,7.80
2022-09-10T12:12:23.233Z,5.53
2022-09-10T12:15:28.016Z,6.43
2022-09-10T12:18:42.887Z,8.13
2022-09-10T12:21:52.670Z,7.37
2022-09-10T12:25:01.049Z,6.57
2022-09-10T12:28:08.039Z,7.00
2022-09-10T12:31:14.095Z,6.00
2022-09-10T12:34:20.441Z,6.67
2022-09-10T12:37:27.967Z,5.20
2022-09-10T12:40:51.900Z,4.70
2022-09-10T12:43:57.009Z,4.93
2022-09-10T12:47:33.717Z,5.00
2022-09-10T12:50:45.941Z,5.30
2022-09-10T12:54:12.449Z,4.73
2022-09-10T12:57:27.371Z,4.37
2022-09-10T13:00:41.971Z,6.37
2022-09-10T13:03:54.824Z,4.37
2022-09-10T13:07:01.431Z,4.30
2022-09-10T13:10:19.682Z,3.80
2022-09-10T13:13:37.389Z,3.60
2022-09-10T13:16:42.543Z,4.27
2022-09-10T13:19:51.877Z,3.37
2022-09-10T13:22:58.353Z,3.27
2022-09-10T13:26:38.255Z,2.90
2022-09-10T13:29:44.394Z,2.60
2022-09-10T13:32:52.133Z,2.87
2022-09-10T13:36:14.590Z,4.03
2022-09-10T13:39:34.696Z,3.67
2022-09-10T13:43:09.845Z,4.20
2022-09-10T13:46:21.809Z,4.53
2022-09-10T13:49:34.585Z,3.80
2022-09-10T13:52:38.545Z,3.83
2022-09-10T13:55:51.574Z,5.00
2022-09-10T13:59:00.774Z,4.70
2022-09-10T14:02:03.753Z,4.33
2022-09-10T14:05:23.492Z,3.87
2022-09-10T14:08:30.508Z,2.67
2022-09-10T14:11:36.451Z,3.57
2022-09-10T14:14:45.621Z,2.27
2022-09-10T14:17:52.068Z,3.37
2022-09-10T14:20:55.085Z,4.13
2022-09-10T14:24:00.227Z,2.37
2022-09-10T14:27:07.849Z,2.50
2022-09-10T14:30:26.898Z,3.57
2022-09-10T14:33:32.868Z,4.20
2022-09-10T14:36:35.833Z,2.20
2022-09-10T14:39:45.195Z,2.83
2022-09-10T14:42:49.409Z,2.60
2022-09-10T14:45:54.290Z,2.43
2022-09-10T14:49:09.473Z,3.87
2022-09-10T14:52:12.834Z,2.70
2022-09-10T14:55:16.803Z,2.43
2022-09-10T14:58:19.772Z,2.57
2022-09-10T15:01:24.282Z,2.80
2022-09-10T15:04:29.454Z,2.70
2022-09-10T15:07:32.356Z,3.40
2022-09-10T15:10:35.405Z,2.17
2022-09-10T15:13:41.389Z,1.60
2022-09-10T15:16:46.399Z,3.57
2022-09-10T15:19:49.886Z,1.83
2022-09-10T15:22:52.815Z,4.53
2022-09-10T15:25:58.045Z,3.43
2022-09-10T15:29:01.090Z,2.47
2022-09-10T15:32:05.692Z,2.83
2022-09-10T15:35:09.600Z,1.90
2022-09-10T15:38:13.906Z,2.87
2022-09-10T15:41:16.942Z,1.73
2022-09-10T15:44:19.897Z,1.83
2022-09-10T15:47:24.285Z,2.20
2022-09-10T15:50:27.555Z,1.60
2022-09-10T15:53:33.571Z,1.30
2022-09-10T15:56:36.663Z,1.60
2022-09-10T15:59:40.532Z,2.43
2022-09-10T16:02:47.064Z,1.57
2022-09-10T16:05:50.068Z,2.50
2022-09-10T16:08:57.601Z,2.37
2022-09-10T16:12:00.537Z,1.80
2022-09-10T16:15:03.516Z,4.17
2022-09-10T16:18:07.810Z,2.13
2022-09-10T16:21:12.667Z,3.00
2022-09-10T16:24:15.616Z,1.97
2022-09-10T16:27:18.715Z,2.17
2022-09-10T16:30:22.661Z,1.73
2022-09-10T16:33:26.933Z,2.77
2022-09-10T16:36:32.449Z,2.17
2022-09-10T16:39:35.699Z,2.77
2022-09-10T16:42:38.716Z,2.50
2022-09-10T16:45:50.425Z,2.17
2022-09-10T16:48:55.974Z,5.27
2022-09-10T16:51:59.046Z,2.43
2022-09-10T16:55:02.499Z,3.03
2022-09-10T16:58:05.839Z,3.23
2022-09-10T17:01:10.495Z,3.93
2022-09-10T17:04:20.506Z,2.20
2022-09-10T17:07:25.703Z,2.53
2022-09-10T17:10:28.671Z,4.00
2022-09-10T17:13:31.616Z,5.20
2022-09-10T17:16:37.479Z,4.50
2022-09-10T17:19:42.890Z,3.70
2022-09-10T17:22:46.459Z,3.03
2022-09-10T17:25:49.401Z,4.43
2022-09-10T17:28:56.967Z,2.97
2022-09-10T17:31:59.924Z,4.27
2022-09-10T17:35:04.409Z,3.27
2022-09-10T17:38:07.907Z,4.10
2022-09-10T17:41:14.393Z,2.37
2022-09-10T17:44:18.086Z,5.53
2022-09-10T17:47:21.066Z,2.93
2022-09-10T17:50:25.350Z,3.47
2022-09-10T17:53:28.658Z,2.77
2022-09-10T17:56:32.069Z,3.10
2022-09-10T17:59:35.178Z,3.67
2022-09-10T18:02:38.237Z,4.40
2022-09-10T18:05:43.441Z,2.73
2022-09-10T18:08:46.387Z,4.37
2022-09-10T18:11:49.373Z,2.90
2022-09-10T18:14:52.534Z,3.23
2022-09-10T18:17:55.755Z,4.20
2022-09-10T18:21:10.396Z,6.40
2022-09-10T18:24:15.149Z,4.60
2022-09-10T18:27:18.075Z,5.33
2022-09-10T18:30:21.247Z,5.23
2022-09-10T18:33:24.158Z,4.90
2022-09-10T18:36:30.278Z,6.53
2022-09-10T18:39:33.762Z,6.20
2022-09-10T18:42:37.135Z,7.00
2022-09-10T18:45:40.211Z,9.17
2022-09-10T18:48:43.986Z,7.63
2022-09-10T18:51:48.319Z,7.97
2022-09-10T18:54:51.521Z,7.50
2022-09-10T18:57:56.629Z,8.83
2022-09-10T19:01:04.989Z,10.43
2022-09-10T19:04:09.502Z,12.40
2022-09-10T19:07:13.779Z,12.10
2022-09-10T19:10:16.843Z,13.33
2022-09-10T19:13:19.792Z,12.37
2022-09-10T19:16:24.186Z,13.40
2022-09-10T19:19:29.361Z,12.97
2022-09-10T19:22:33.825Z,13.17
2022-09-10T19:25:36.766Z,14.47
2022-09-10T19:28:40.605Z,15.47
2022-09-10T19:31:44.480Z,14.87
2022-09-10T19:34:49.614Z,14.43
2022-09-10T19:37:53.926Z,16.63
2022-09-10T19:41:03.724Z,16.90
2022-09-10T19:44:07.998Z,14.60
2022-09-10T19:47:11.038Z,15.57
2022-09-10T19:50:13.985Z,15.70
2022-09-10T19:53:18.369Z,21.97
2022-09-10T19:56:23.401Z,17.47
2022-09-10T19:59:26.648Z,17.13
2022-09-10T20:02:29.695Z,16.53
2022-09-10T20:05:34.005Z,18.50
2022-09-10T20:08:39.225Z,19.37
2022-09-10T20:11:42.227Z,17.70
2022-09-10T20:14:45.234Z,20.47
2022-09-10T20:17:50.362Z,17.93
2022-09-10T20:20:53.293Z,18.97
2022-09-10T20:23:58.070Z,17.47
2022-09-10T20:27:01.079Z,18.30
2022-09-10T20:30:04.371Z,17.93
2022-09-10T20:33:07.750Z,17.10
2022-09-10T20:36:13.326Z,18.83
2022-09-10T20:39:19.526Z,18.10
2022-09-10T20:42:24.063Z,17.80
2022-09-10T20:45:27.464Z,18.87
2022-09-10T20:48:31.787Z,20.17
2022-09-10T20:51:36.563Z,19.90
2022-09-10T20:54:40.809Z,20.07
2022-09-10T20:57:43.757Z,19.57
2022-09-10T21:00:46.866Z,20.53
2022-09-10T21:03:51.975Z,20.27
2022-09-10T21:06:55.295Z,21.17
2022-09-10T21:09:59.563Z,20.03
2022-09-10T21:13:03.489Z,22.43
2022-09-10T21:16:11.419Z,23.83
2022-09-10T21:19:16.500Z,24.90
2022-09-10T21:22:20.184Z,28.30
2022-09-10T21:25:26.013Z,25.17
2022-09-10T21:28:29.315Z,24.23
2022-09-10T21:31:32.454Z,24.70
2022-09-10T21:34:35.710Z,22.30
2022-09-10T21:37:40.300Z,25.00
2022-09-10T21:40:44.636Z,24.17
2022-09-10T21:43:48.541Z,23.27
2022-09-10T21:46:52.792Z,21.27
2022-09-10T21:49:55.769Z,22.33
2022-09-10T21:52:58.692Z,25.23
2022-09-10T21:56:04.747Z,24.30
2022-09-10T21:59:07.790Z,22.10
2022-09-10T22:02:11.320Z,24.87
2022-09-10T22:05:14.426Z,25.47
2022-09-10T22:08:17.367Z,24.37
2022-09-10T22:11:24.419Z,23.07
2022-09-10T22:14:27.519Z,23.60
2022-09-10T22:17:30.462Z,24.90
2022-09-10T22:20:34.501Z,23.27
2022-09-10T22:23:39.247Z,22.07
2022-09-10T22:26:44.934Z,22.83
2022-09-10T22:29:47.917Z,22.00
2022-09-10T22:32:50.845Z,22.37
2022-09-10T22:35:55.314Z,23.23
2022-09-10T22:39:00.222Z,23.20
2022-09-10T22:42:05.383Z,22.37
2022-09-10T22:45:09.268Z,25.60
2022-09-10T22:48:12.338Z,22.97
2022-09-10T22:51:17.751Z,22.73
2022-09-10T22:54:20.712Z,22.20
2022-09-10T22:57:25.029Z,21.57
2022-09-10T23:00:27.983Z,23.07
2022-09-10T23:03:30.979Z,23.80
2022-09-10T23:06:35.626Z,22.50
2022-09-10T23:09:38.762Z,23.80
2022-09-10T23:12:43.039Z,22.00
2022-09-10T23:15:46.067Z,27.13
2022-09-10T23:18:50.697Z,22.53
2022-09-10T23:21:55.214Z,22.13
2022-09-10T23:24:58.217Z,23.90
2022-09-10T23:28:07.120Z,28.47
2022-09-10T23:31:13.906Z,23.87
2022-09-10T23:34:19.556Z,26.23
2022-09-10T23:37:22.466Z,25.97
2022-09-10T23:40:31.040Z,26.37
2022-09-10T23:43:38.079Z,26.27
2022-09-10T23:46:41.142Z,26.27
2022-09-10T23:49:44.337Z,26.90
2022-09-10T23:52:47.318Z,24.87
2022-09-10T23:55:50.309Z,29.20
2022-09-10T23:58:55.038Z,26.47
